Flight Track Log - Related Links

Times and Time Zones

All times are in EDT time to prevent confusion due to time zone crossing. See the N36579 flight status page for this flight to view local times or setup timezone preferences in your user account.

Time Position Orientation Groundspeed Altitude Reporting Facility
EDT Latitude Longitude Course Direction KTS MPH feet Rate Location/Type
Thu 03:23:12 PM 47.9500 -97.1500 180° South 281 323 21,000  Level
Thu 03:24:01 PM 47.9000 -97.1500 180° South 251 289 21,000  Level
Thu 03:24:12 PM 47.8833 -97.1500 180° South 242 278 21,000 -13,014 Level
Thu 03:25:12 PM 47.8167 -97.1500 180° South 237 273 5,600 -6,700 Descending
Thu 03:26:12 PM 47.7667 -97.1500 180° South 213 245 7,600 1,850 Climbing
Thu 03:27:12 PM 47.7167 -97.1500 180° South 198 228 9,300 1,650 Climbing
Thu 03:28:12 PM 47.6667 -97.1500 199° South 188 216 10,900 1,700 Climbing
Thu 03:29:12 PM 47.6333 -97.1667 193° South 183 211 12,700 1,650 Climbing
Thu 03:30:12 PM 47.5833 -97.1833 193° South 178 205 14,200 1,500 Climbing
Thu 03:31:12 PM 47.5333 -97.2000 193° South 183 211 15,700 1,450 Climbing
Thu 03:32:12 PM 47.4833 -97.2167 193° South 188 216 17,100 1,650 Climbing
Thu 03:33:12 PM 47.4333 -97.2333 190° South 188 216 19,000 1,550 Climbing
Thu 03:34:12 PM 47.3667 -97.2500 204° Southwest 199 229 20,200 1,000 Climbing
Thu 03:35:12 PM 47.3167 -97.2833 190° South 204 235 21,000 400 Climbing
Thu 03:36:12 PM 47.2500 -97.3000 188° South 224 258 21,000  Level
Thu 03:37:12 PM 47.1667 -97.3167 180° South 246 283 21,000  Level
Thu 03:38:12 PM 47.1000 -97.3167 172° South 268 308 21,000  Level
Thu 03:39:12 PM 47.0167 -97.3000 180° South 287 330 21,000  Level
Thu 03:40:12 PM 46.9333 -97.3000 180° South 287 330 21,000  Level
Thu 03:41:12 PM 46.8500 -97.3000 180° South 287 330 21,000  Level
Thu 03:42:12 PM 46.7833 -97.3000 180° South 287 330 21,000  Level
Thu 03:43:12 PM 46.7000 -97.3000 190° South 282 325 21,000  Level
Thu 03:44:12 PM 46.6333 -97.3167 180° South 272 313 21,000  Level
Thu 03:45:12 PM 46.5500 -97.3167 180° South 272 313 21,000  Level
Thu 03:46:12 PM 46.4833 -97.3167 180° South 272 313 21,000  Level
Thu 03:47:12 PM 46.4000 -97.3167 180° South 272 313 21,000  Level
Thu 03:48:12 PM 46.3333 -97.3167 180° South 272 313 21,000  Level
Thu 03:49:12 PM 46.2500 -97.3167 180° South 272 313 21,000  Level
Thu 03:50:12 PM 46.1833 -97.3167 180° South 272 313 21,000  Level
Thu 03:51:12 PM 46.1167 -97.3167 180° South 267 307 21,000  Level
Thu 03:52:12 PM 46.0500 -97.3167 180° South 262 302 21,000  Level
Thu 03:53:12 PM 45.9667 -97.3167 180° South 262 302 21,000  Level
Thu 03:54:12 PM 45.9000 -97.3167 180° South 267 307 21,000  Level
Thu 03:55:12 PM 45.8167 -97.3167 180° South 273 314 21,000  Level
Thu 03:56:12 PM 45.7500 -97.3167 180° South 273 314 21,000  Level
Thu 03:57:12 PM 45.6667 -97.3167 190° South 273 314 21,000  Level
Thu 03:58:12 PM 45.6000 -97.3333 170° South 268 308 21,000  Level
Thu 03:59:13 PM 45.5333 -97.3167 188° South 268 308 21,000  Level
Thu 04:00:13 PM 45.4500 -97.3333 180° South 268 308 21,000  Level
Thu 04:01:13 PM 45.3833 -97.3333 180° South 262 302 21,000  Level
Thu 04:02:13 PM 45.3167 -97.3333 180° South 262 302 21,000  Level
Thu 04:03:13 PM 45.2333 -97.3333 180° South 267 307 21,000  Level
Thu 04:04:13 PM 45.1667 -97.3333 180° South 273 314 21,000  Level
Thu 04:05:13 PM 45.0833 -97.3333 180° South 278 320 21,000  Level
Thu 04:06:13 PM 45.0167 -97.3333 180° South 273 314 21,000  Level
Thu 04:07:13 PM 44.9333 -97.3333 180° South 275 316 21,000  Level
Thu 04:08:13 PM 44.8667 -97.3333 180° South 269 310 21,000  Level
Thu 04:09:13 PM 44.7833 -97.3333 190° South 269 310 21,000  Level
Thu 04:10:13 PM 44.7167 -97.3500 180° South 275 316 21,000  Level
Thu 04:11:13 PM 44.6500 -97.3500 180° South 275 316 21,000  Level
Thu 04:12:13 PM 44.5667 -97.3500 180° South 275 316 21,000  Level
Thu 04:13:12 PM 44.5000 -97.3500 180° South 270 311 21,000  Level
Thu 04:14:12 PM 44.4167 -97.3500 180° South 270 311 21,000  Level
Thu 04:15:12 PM 44.3500 -97.3500 190° South 270 311 21,000  Level
Thu 04:16:12 PM 44.2833 -97.3667 188° South 275 316 21,000  Level
Thu 04:17:12 PM 44.2000 -97.3833 200° South 268 308 21,000  Level
Thu 04:18:12 PM 44.1333 -97.4167 190° South 262 302 21,000  Level
Thu 04:19:12 PM 44.0667 -97.4333 180° South 262 302 21,000  Level
Thu 04:20:12 PM 44.0000 -97.4333 180° South 262 302 21,000  Level
Thu 04:21:12 PM 43.9167 -97.4333 170° South 262 302 21,000  Level
Thu 04:22:12 PM 43.8500 -97.4167 188° South 262 302 21,000  Level
Thu 04:23:12 PM 43.7667 -97.4333 170° South 267 307 21,000  Level
Thu 04:24:12 PM 43.7000 -97.4167 190° South 267 307 21,000  Level
Thu 04:25:12 PM 43.6333 -97.4333 180° South 267 307 21,000  Level
Thu 04:26:12 PM 43.5667 -97.4333 180° South 262 302 21,000  Level
Thu 04:27:12 PM 43.4833 -97.4333 180° South 262 302 21,000  Level
Thu 04:28:12 PM 43.4167 -97.4333 180° South 257 296 21,000  Level
Thu 04:29:12 PM 43.3500 -97.4333 180° South 252 290 21,000  Level
Thu 04:30:12 PM 43.2833 -97.4333 180° South 252 290 21,000  Level
Thu 04:31:12 PM 43.2167 -97.4333 180° South 252 290 21,000  Level
Thu 04:32:12 PM 43.1500 -97.4333 180° South 247 284 21,000  Level
Thu 04:33:12 PM 43.0833 -97.4333 180° South 247 284 21,000  Level
Thu 04:34:12 PM 43.0167 -97.4333 180° South 247 284 21,000  Level
Thu 04:35:12 PM 42.9500 -97.4333 180° South 242 278 21,000  Level
Thu 04:36:12 PM 42.8833 -97.4333 180° South 242 278 21,000  Level
Thu 04:37:12 PM 42.8167 -97.4333 180° South 242 278 21,000  Level
Thu 04:38:12 PM 42.7500 -97.4333 180° South 247 284 21,000  Level
Thu 04:39:13 PM 42.6833 -97.4333 180° South 247 284 21,000  Level
Thu 04:40:12 PM 42.6167 -97.4333 180° South 253 291 21,000  Level
Thu 04:41:12 PM 42.5500 -97.4333 180° South 253 291 21,000  Level
Thu 04:42:12 PM 42.4833 -97.4333 180° South 253 291 21,000  Level
Thu 04:43:12 PM 42.4167 -97.4333 180° South 253 291 21,000  Level
Thu 04:44:12 PM 42.3500 -97.4333 180° South 248 285 21,000  Level
Thu 04:45:12 PM 42.2833 -97.4333 180° South 242 278 21,000  Level
Thu 04:46:12 PM 42.2167 -97.4333 180° South 235 270 21,000  Level
Thu 04:47:12 PM 42.1667 -97.4333 180° South 235 270 21,000  Level
Thu 04:48:12 PM 42.1000 -97.4333 180° South 235 270 21,000  Level
Thu 04:49:12 PM 42.0333 -97.4333 180° South 235 270 21,000  Level
Thu 04:50:12 PM 41.9833 -97.4333 180° South 230 265 21,000  Level
Thu 04:51:12 PM 41.9167 -97.4333 180° South 230 265 21,000  Level
Thu 04:52:12 PM 41.8500 -97.4333 180° South 223 257 21,000  Level
Thu 04:53:12 PM 41.8000 -97.4333 180° South 216 249 21,000  Level
Thu 04:54:12 PM 41.7333 -97.4333 180° South 216 249 21,000  Level
Thu 04:55:12 PM 41.6833 -97.4333 180° South 216 249 21,000  Level
Thu 04:56:12 PM 41.6333 -97.4333 180° South 216 249 21,000  Level
Thu 04:57:12 PM 41.5667 -97.4333 180° South 216 249 21,000  Level
Thu 04:58:12 PM 41.5167 -97.4333 180° South 216 249 21,000  Level
Thu 04:59:12 PM 41.4500 -97.4333 180° South 216 249 21,000  Level
Thu 05:00:12 PM 41.4000 -97.4333 180° South 211 243 21,000  Level
Thu 05:01:12 PM 41.3500 -97.4333 180° South 211 243 21,000  Level
Thu 05:02:12 PM 41.2833 -97.4333 180° South 205 236 21,000  Level
Thu 05:03:12 PM 41.2333 -97.4333 180° South 205 236 21,000  Level
Thu 05:04:12 PM 41.1667 -97.4333 180° South 217 250 21,000  Level
Thu 05:05:12 PM 41.1167 -97.4333 180° South 217 250 21,000  Level
Thu 05:06:12 PM 41.0500 -97.4333 180° South 217 250 21,000  Level
Thu 05:07:12 PM 41.0000 -97.4333 180° South 217 250 21,000  Level
Thu 05:08:12 PM 40.9333 -97.4333 180° South 217 250 21,000  Level
Thu 05:09:12 PM 40.8833 -97.4333 180° South 217 250 21,000  Level
Thu 05:10:12 PM 40.8167 -97.4333 180° South 217 250 21,000  Level
Thu 05:11:12 PM 40.7667 -97.4333 180° South 217 250 21,000  Level
Thu 05:12:12 PM 40.7000 -97.4333 180° South 217 250 21,000  Level
Thu 05:13:12 PM 40.6500 -97.4333 180° South 217 250 21,000  Level
Thu 05:14:12 PM 40.5833 -97.4333 180° South 217 250 21,000  Level
Thu 05:15:12 PM 40.5333 -97.4333 180° South 217 250 21,000  Level
Thu 05:16:12 PM 40.4667 -97.4333 180° South 217 250 21,000  Level
Thu 05:17:12 PM 40.4167 -97.4333 180° South 217 250 21,000  Level
Thu 05:18:12 PM 40.3500 -97.4333 180° South 217 250 21,000  Level
Thu 05:19:12 PM 40.3000 -97.4333 180° South 217 250 21,000  Level
Thu 05:20:12 PM 40.2333 -97.4333 180° South 212 244 21,000  Level
Thu 05:23:49 PM 40.0167 -97.4333 180° South 199 229 21,000  Level
Thu 05:24:51 PM 39.9667 -97.4333 180° South 194 223 21,000  Level
Thu 05:25:51 PM 39.9167 -97.4333 180° South 199 229 21,000  Level
Thu 05:26:53 PM 39.8500 -97.4333 180° South 199 229 21,000  Level
Thu 05:27:55 PM 39.7833 -97.4333 180° South 199 229 21,000  Level
Thu 05:28:57 PM 39.7333 -97.4333 180° South 222 255 21,000  Level
Thu 05:29:57 PM 39.6667 -97.4333 180° South 208 239 21,000  Level
Thu 05:30:59 PM 39.6000 -97.4333 180° South 214 246 21,000  Level
Thu 05:31:59 PM 39.5500 -97.4333 180° South 214 246 21,000  Level
Thu 05:32:59 PM 39.4833 -97.4333 180° South 207 238 21,000  Level
Thu 05:33:59 PM 39.4333 -97.4333 180° South 207 238 21,000  Level
Thu 05:34:59 PM 39.3833 -97.4333 180° South 207 238 21,000  Level
Thu 05:35:59 PM 39.3167 -97.4333 180° South 212 244 21,000 -350 Level
Thu 05:36:59 PM 39.2500 -97.4333 180° South 218 251 20,300 -850 Descending
Thu 05:37:59 PM 39.1833 -97.4333 180° South 229 264 19,300 -1,000 Descending
Thu 05:38:59 PM 39.1167 -97.4333 180° South 240 276 18,300 -1,240 Descending
Thu 05:40:00 PM 39.0500 -97.4333 180° South 245 282 16,800 -1,200 Descending
Thu 05:40:59 PM 38.9833 -97.4333 180° South 245 282 15,900 -857 Descending
Thu 05:41:59 PM 38.9167 -97.4333 180° South 245 282 15,100 -800 Descending
Thu 05:42:59 PM 38.8500 -97.4333 180° South 245 282 14,300 -750 Descending
Thu 05:43:59 PM 38.7833 -97.4333 180° South 245 282 13,600 -650 Descending
Thu 05:44:59 PM 38.7167 -97.4333 180° South 240 276 13,000 -550 Descending
Thu 05:45:59 PM 38.6500 -97.4333 180° South 235 270 12,500 -600 Descending
Thu 05:46:59 PM 38.5833 -97.4333 180° South 235 270 11,800 -600 Descending
Thu 05:47:59 PM 38.5167 -97.4333 180° South 235 270 11,300 -550 Descending
Thu 05:48:59 PM 38.4500 -97.4333 180° South 235 270 10,700 -550 Descending
Thu 05:49:59 PM 38.3833 -97.4333 180° South 240 276 10,200 -600 Descending
Thu 05:50:59 PM 38.3167 -97.4333 180° South 246 283 9,500 -650 Descending
Thu 05:51:59 PM 38.2500 -97.4333 180° South 252 290 8,900 -600 Descending
Thu 05:52:59 PM 38.1833 -97.4333 180° South 252 290 8,300 -600 Descending
Thu 05:53:59 PM 38.1000 -97.4333 180° South 252 290 7,700 -600 Descending
Thu 05:54:59 PM 38.0333 -97.4333 158° South 252 290 7,100 -595 Descending
Thu 05:56:00 PM 37.9667 -97.4000 152° Southeast 252 290 6,500 6,950 Descending
Thu 05:56:59 PM 37.9167 -97.3667 165° South 241 277 21,000 7,311 Climbing
Thu 05:57:59 PM 37.8667 -97.3500 152° Southeast 217 250 21,000 -8,250 Level
Thu 05:58:59 PM 37.8167 -97.3167 201° Southwest 190 219 4,500 -8,500 Descending
Thu 05:59:59 PM 37.7833 -97.3333 202° Southwest 163 188 4,000 -595 Descending
Thu 06:01:00 PM 37.7500 -97.3500 218° Southwest 156 180 3,300 -700 Descending
Thu 06:01:59 PM 37.7167 -97.3833 218° Southwest 146 168 2,600 -650 Descending
Thu 06:03:00 PM 37.6833 -97.4167 202° Southwest 140 161 2,000 -595 Descending
Thu 06:04:00 PM 37.6500 -97.4333 202° Southwest 129 148 1,400 -600 Descending

Login

Don't have an account? Register now (free) for customized features, flight alerts, and more!